sensor_id;sensor_type;location;lat;lon;timestamp;P1;durP1;ratioP1;P2;durP2;ratioP2
46717;SDS011;32448;44.960;-0.698;2023-02-26T00:01:17;11.35;;;2.60;;
46717;SDS011;32448;44.960;-0.698;2023-02-26T00:03:50;10.20;;;2.72;;
46717;SDS011;32448;44.960;-0.698;2023-02-26T00:06:19;11.95;;;2.78;;
46717;SDS011;32448;44.960;-0.698;2023-02-26T00:08:47;6.65;;;2.22;;
46717;SDS011;32448;44.960;-0.698;2023-02-26T00:11:16;7.55;;;2.25;;
46717;SDS011;32448;44.960;-0.698;2023-02-26T00:13:44;6.07;;;2.42;;
46717;SDS011;32448;44.960;-0.698;2023-02-26T00:16:32;6.40;;;2.75;;
46717;SDS011;32448;44.960;-0.698;2023-02-26T00:19:03;8.48;;;3.20;;
46717;SDS011;32448;44.960;-0.698;2023-02-26T00:21:33;8.07;;;2.35;;
46717;SDS011;32448;44.960;-0.698;2023-02-26T00:24:04;9.93;;;2.65;;
46717;SDS011;32448;44.960;-0.698;2023-02-26T00:26:32;7.70;;;2.33;;
46717;SDS011;32448;44.960;-0.698;2023-02-26T00:29:01;7.55;;;2.15;;
46717;SDS011;32448;44.960;-0.698;2023-02-26T00:31:29;6.95;;;2.20;;
46717;SDS011;32448;44.960;-0.698;2023-02-26T00:33:57;10.05;;;2.38;;
46717;SDS011;32448;44.960;-0.698;2023-02-26T00:39:23;6.65;;;2.08;;
46717;SDS011;32448;44.960;-0.698;2023-02-26T00:42:01;9.70;;;2.28;;
46717;SDS011;32448;44.960;-0.698;2023-02-26T00:44:29;9.25;;;2.60;;
46717;SDS011;32448;44.960;-0.698;2023-02-26T00:50:05;6.18;;;2.17;;
46717;SDS011;32448;44.960;-0.698;2023-02-26T00:55:44;6.90;;;2.25;;
46717;SDS011;32448;44.960;-0.698;2023-02-26T00:58:12;5.82;;;2.83;;
46717;SDS011;32448;44.960;-0.698;2023-02-26T01:00:39;5.38;;;2.15;;
46717;SDS011;32448;44.960;-0.698;2023-02-26T01:03:06;9.27;;;2.83;;
46717;SDS011;32448;44.960;-0.698;2023-02-26T01:05:34;7.10;;;2.17;;
46717;SDS011;32448;44.960;-0.698;2023-02-26T01:10:40;7.57;;;2.45;;
46717;SDS011;32448;44.960;-0.698;2023-02-26T01:13:07;8.52;;;2.33;;
46717;SDS011;32448;44.960;-0.698;2023-02-26T01:15:35;9.60;;;2.75;;
46717;SDS011;32448;44.960;-0.698;2023-02-26T01:20:42;7.53;;;2.53;;
46717;SDS011;32448;44.960;-0.698;2023-02-26T01:23:15;8.85;;;2.70;;
46717;SDS011;32448;44.960;-0.698;2023-02-26T01:25:52;12.05;;;2.50;;
46717;SDS011;32448;44.960;-0.698;2023-02-26T01:28:27;10.70;;;2.90;;
46717;SDS011;32448;44.960;-0.698;2023-02-26T01:30:57;9.90;;;2.58;;
46717;SDS011;32448;44.960;-0.698;2023-02-26T01:33:39;7.55;;;2.67;;
46717;SDS011;32448;44.960;-0.698;2023-02-26T01:36:23;6.38;;;2.47;;
46717;SDS011;32448;44.960;-0.698;2023-02-26T01:39:05;12.20;;;3.00;;
46717;SDS011;32448;44.960;-0.698;2023-02-26T01:47:52;5.15;;;2.38;;
46717;SDS011;32448;44.960;-0.698;2023-02-26T01:50:24;7.28;;;2.22;;
46717;SDS011;32448;44.960;-0.698;2023-02-26T01:53:16;10.40;;;3.00;;
46717;SDS011;32448;44.960;-0.698;2023-02-26T01:55:48;9.60;;;2.35;;
46717;SDS011;32448;44.960;-0.698;2023-02-26T01:58:18;8.43;;;2.50;;
46717;SDS011;32448;44.960;-0.698;2023-02-26T02:00:48;10.32;;;3.00;;
46717;SDS011;32448;44.960;-0.698;2023-02-26T02:03:16;9.55;;;2.80;;
46717;SDS011;32448;44.960;-0.698;2023-02-26T02:05:46;9.55;;;2.40;;
46717;SDS011;32448;44.960;-0.698;2023-02-26T02:10:46;11.18;;;2.65;;
46717;SDS011;32448;44.960;-0.698;2023-02-26T02:18:53;9.00;;;2.42;;
46717;SDS011;32448;44.960;-0.698;2023-02-26T02:27:38;10.30;;;2.70;;
46717;SDS011;32448;44.960;-0.698;2023-02-26T02:32:59;10.15;;;2.45;;
46717;SDS011;32448;44.960;-0.698;2023-02-26T02:35:32;7.90;;;2.65;;
46717;SDS011;32448;44.960;-0.698;2023-02-26T02:38:07;5.88;;;2.88;;
46717;SDS011;32448;44.960;-0.698;2023-02-26T02:40:42;7.70;;;2.20;;
46717;SDS011;32448;44.960;-0.698;2023-02-26T02:43:15;9.55;;;2.20;;
46717;SDS011;32448;44.960;-0.698;2023-02-26T02:45:49;9.85;;;2.58;;
46717;SDS011;32448;44.960;-0.698;2023-02-26T02:48:40;8.75;;;2.33;;
46717;SDS011;32448;44.960;-0.698;2023-02-26T02:51:13;9.15;;;2.35;;
46717;SDS011;32448;44.960;-0.698;2023-02-26T02:53:49;6.22;;;2.20;;
46717;SDS011;32448;44.960;-0.698;2023-02-26T02:56:26;7.03;;;2.42;;
46717;SDS011;32448;44.960;-0.698;2023-02-26T02:59:05;11.32;;;3.38;;
46717;SDS011;32448;44.960;-0.698;2023-02-26T03:04:47;6.97;;;2.38;;
46717;SDS011;32448;44.960;-0.698;2023-02-26T03:07:15;6.97;;;2.42;;
46717;SDS011;32448;44.960;-0.698;2023-02-26T03:09:42;8.63;;;2.25;;
46717;SDS011;32448;44.960;-0.698;2023-02-26T03:12:10;6.72;;;2.30;;
46717;SDS011;32448;44.960;-0.698;2023-02-26T03:14:38;9.75;;;3.00;;
46717;SDS011;32448;44.960;-0.698;2023-02-26T03:22:53;9.30;;;1.92;;
46717;SDS011;32448;44.960;-0.698;2023-02-26T03:25:44;7.50;;;2.40;;
46717;SDS011;32448;44.960;-0.698;2023-02-26T03:28:30;8.85;;;2.13;;
46717;SDS011;32448;44.960;-0.698;2023-02-26T03:33:51;8.98;;;2.60;;
46717;SDS011;32448;44.960;-0.698;2023-02-26T03:36:38;13.45;;;2.28;;
46717;SDS011;32448;44.960;-0.698;2023-02-26T03:39:26;7.28;;;2.22;;
46717;SDS011;32448;44.960;-0.698;2023-02-26T03:42:50;11.13;;;3.40;;
46717;SDS011;32448;44.960;-0.698;2023-02-26T03:45:21;5.88;;;2.35;;
46717;SDS011;32448;44.960;-0.698;2023-02-26T03:47:52;8.80;;;2.47;;
46717;SDS011;32448;44.960;-0.698;2023-02-26T03:50:26;9.73;;;2.60;;
46717;SDS011;32448;44.960;-0.698;2023-02-26T03:53:32;8.52;;;2.28;;
46717;SDS011;32448;44.960;-0.698;2023-02-26T03:56:22;12.20;;;2.83;;
46717;SDS011;32448;44.960;-0.698;2023-02-26T03:59:07;12.27;;;2.78;;
46717;SDS011;32448;44.960;-0.698;2023-02-26T04:02:19;8.07;;;2.97;;
46717;SDS011;32448;44.960;-0.698;2023-02-26T04:05:26;13.10;;;3.30;;
46717;SDS011;32448;44.960;-0.698;2023-02-26T04:07:58;11.40;;;3.08;;
46717;SDS011;32448;44.960;-0.698;2023-02-26T04:10:45;8.98;;;3.13;;
46717;SDS011;32448;44.960;-0.698;2023-02-26T04:13:18;9.38;;;3.28;;
46717;SDS011;32448;44.960;-0.698;2023-02-26T04:15:47;12.00;;;2.80;;
46717;SDS011;32448;44.960;-0.698;2023-02-26T04:18:14;13.98;;;4.00;;
46717;SDS011;32448;44.960;-0.698;2023-02-26T04:20:42;8.93;;;3.10;;
46717;SDS011;32448;44.960;-0.698;2023-02-26T04:23:09;11.23;;;3.53;;
46717;SDS011;32448;44.960;-0.698;2023-02-26T04:25:37;10.38;;;3.83;;
46717;SDS011;32448;44.960;-0.698;2023-02-26T04:28:06;9.07;;;3.78;;
46717;SDS011;32448;44.960;-0.698;2023-02-26T04:30:34;11.35;;;3.63;;
46717;SDS011;32448;44.960;-0.698;2023-02-26T04:33:04;12.55;;;3.53;;
46717;SDS011;32448;44.960;-0.698;2023-02-26T04:35:42;12.82;;;3.38;;
46717;SDS011;32448;44.960;-0.698;2023-02-26T04:38:14;11.27;;;3.40;;
46717;SDS011;32448;44.960;-0.698;2023-02-26T04:40:45;13.18;;;4.28;;
46717;SDS011;32448;44.960;-0.698;2023-02-26T04:43:13;14.07;;;3.80;;
46717;SDS011;32448;44.960;-0.698;2023-02-26T04:45:49;11.90;;;3.67;;
46717;SDS011;32448;44.960;-0.698;2023-02-26T04:48:17;12.93;;;4.00;;
46717;SDS011;32448;44.960;-0.698;2023-02-26T04:50:46;15.63;;;4.15;;
46717;SDS011;32448;44.960;-0.698;2023-02-26T04:53:14;12.27;;;3.72;;
46717;SDS011;32448;44.960;-0.698;2023-02-26T04:55:42;10.73;;;3.80;;
46717;SDS011;32448;44.960;-0.698;2023-02-26T04:58:11;10.43;;;3.88;;
46717;SDS011;32448;44.960;-0.698;2023-02-26T05:00:38;15.90;;;4.00;;
46717;SDS011;32448;44.960;-0.698;2023-02-26T05:03:06;13.43;;;4.47;;
46717;SDS011;32448;44.960;-0.698;2023-02-26T05:05:35;12.05;;;4.43;;
46717;SDS011;32448;44.960;-0.698;2023-02-26T05:08:02;13.95;;;3.97;;
46717;SDS011;32448;44.960;-0.698;2023-02-26T05:10:30;14.10;;;4.32;;
46717;SDS011;32448;44.960;-0.698;2023-02-26T05:12:57;17.10;;;4.32;;
46717;SDS011;32448;44.960;-0.698;2023-02-26T05:15:25;11.07;;;4.15;;
46717;SDS011;32448;44.960;-0.698;2023-02-26T05:17:52;16.90;;;4.07;;
46717;SDS011;32448;44.960;-0.698;2023-02-26T05:20:19;13.50;;;4.63;;
46717;SDS011;32448;44.960;-0.698;2023-02-26T05:22:46;10.13;;;4.40;;
46717;SDS011;32448;44.960;-0.698;2023-02-26T05:25:14;10.98;;;4.45;;
46717;SDS011;32448;44.960;-0.698;2023-02-26T05:27:44;15.77;;;4.40;;
46717;SDS011;32448;44.960;-0.698;2023-02-26T05:30:12;15.75;;;5.03;;
46717;SDS011;32448;44.960;-0.698;2023-02-26T05:32:42;11.43;;;4.53;;
46717;SDS011;32448;44.960;-0.698;2023-02-26T05:35:09;14.70;;;4.78;;
46717;SDS011;32448;44.960;-0.698;2023-02-26T05:37:37;10.65;;;4.22;;
46717;SDS011;32448;44.960;-0.698;2023-02-26T05:40:06;10.30;;;4.55;;
46717;SDS011;32448;44.960;-0.698;2023-02-26T05:42:37;14.57;;;4.85;;
46717;SDS011;32448;44.960;-0.698;2023-02-26T05:45:05;15.55;;;4.75;;
46717;SDS011;32448;44.960;-0.698;2023-02-26T05:47:33;16.73;;;4.70;;
46717;SDS011;32448;44.960;-0.698;2023-02-26T05:50:02;12.20;;;4.40;;
46717;SDS011;32448;44.960;-0.698;2023-02-26T05:52:33;11.88;;;4.57;;
46717;SDS011;32448;44.960;-0.698;2023-02-26T05:55:00;14.10;;;4.93;;
46717;SDS011;32448;44.960;-0.698;2023-02-26T05:57:28;12.18;;;4.60;;
46717;SDS011;32448;44.960;-0.698;2023-02-26T05:59:55;12.13;;;4.53;;
46717;SDS011;32448;44.960;-0.698;2023-02-26T06:02:24;14.10;;;5.03;;
46717;SDS011;32448;44.960;-0.698;2023-02-26T06:04:51;11.23;;;4.75;;
46717;SDS011;32448;44.960;-0.698;2023-02-26T06:07:19;10.55;;;4.40;;
46717;SDS011;32448;44.960;-0.698;2023-02-26T06:09:46;16.48;;;4.90;;
46717;SDS011;32448;44.960;-0.698;2023-02-26T06:12:15;15.85;;;5.05;;
46717;SDS011;32448;44.960;-0.698;2023-02-26T06:14:42;8.60;;;4.45;;
46717;SDS011;32448;44.960;-0.698;2023-02-26T06:17:13;12.43;;;4.32;;
46717;SDS011;32448;44.960;-0.698;2023-02-26T06:19:40;14.68;;;5.05;;
46717;SDS011;32448;44.960;-0.698;2023-02-26T06:22:08;13.13;;;4.80;;
46717;SDS011;32448;44.960;-0.698;2023-02-26T06:24:35;13.93;;;4.60;;
46717;SDS011;32448;44.960;-0.698;2023-02-26T06:27:02;17.92;;;5.35;;
46717;SDS011;32448;44.960;-0.698;2023-02-26T06:29:32;12.27;;;4.40;;
46717;SDS011;32448;44.960;-0.698;2023-02-26T06:32:00;14.57;;;4.90;;
46717;SDS011;32448;44.960;-0.698;2023-02-26T06:34:27;14.05;;;4.30;;
46717;SDS011;32448;44.960;-0.698;2023-02-26T06:36:55;16.73;;;5.07;;
46717;SDS011;32448;44.960;-0.698;2023-02-26T06:39:23;11.13;;;4.35;;
46717;SDS011;32448;44.960;-0.698;2023-02-26T06:41:50;15.10;;;4.72;;
46717;SDS011;32448;44.960;-0.698;2023-02-26T06:44:18;8.95;;;4.50;;
46717;SDS011;32448;44.960;-0.698;2023-02-26T06:46:45;10.73;;;4.40;;
46717;SDS011;32448;44.960;-0.698;2023-02-26T06:49:12;12.40;;;4.50;;
46717;SDS011;32448;44.960;-0.698;2023-02-26T06:51:39;13.98;;;4.65;;
46717;SDS011;32448;44.960;-0.698;2023-02-26T06:54:10;9.43;;;4.30;;
46717;SDS011;32448;44.960;-0.698;2023-02-26T06:56:38;14.38;;;5.00;;
46717;SDS011;32448;44.960;-0.698;2023-02-26T06:59:06;9.35;;;4.20;;
46717;SDS011;32448;44.960;-0.698;2023-02-26T07:01:33;9.52;;;4.68;;
46717;SDS011;32448;44.960;-0.698;2023-02-26T07:04:00;10.07;;;4.18;;
46717;SDS011;32448;44.960;-0.698;2023-02-26T07:06:28;12.15;;;4.60;;
46717;SDS011;32448;44.960;-0.698;2023-02-26T07:08:56;10.18;;;4.35;;
46717;SDS011;32448;44.960;-0.698;2023-02-26T07:11:24;10.98;;;4.05;;
46717;SDS011;32448;44.960;-0.698;2023-02-26T07:13:52;19.85;;;4.78;;
46717;SDS011;32448;44.960;-0.698;2023-02-26T07:16:19;11.93;;;4.70;;
46717;SDS011;32448;44.960;-0.698;2023-02-26T07:18:47;9.80;;;4.55;;
46717;SDS011;32448;44.960;-0.698;2023-02-26T07:21:14;11.85;;;4.00;;
46717;SDS011;32448;44.960;-0.698;2023-02-26T07:23:42;12.43;;;4.60;;
46717;SDS011;32448;44.960;-0.698;2023-02-26T07:26:13;9.02;;;4.25;;
46717;SDS011;32448;44.960;-0.698;2023-02-26T07:28:41;9.32;;;4.40;;
46717;SDS011;32448;44.960;-0.698;2023-02-26T07:31:08;11.98;;;4.43;;
46717;SDS011;32448;44.960;-0.698;2023-02-26T07:33:40;12.95;;;4.03;;
46717;SDS011;32448;44.960;-0.698;2023-02-26T07:36:07;11.95;;;4.70;;
46717;SDS011;32448;44.960;-0.698;2023-02-26T07:38:35;13.07;;;5.20;;
46717;SDS011;32448;44.960;-0.698;2023-02-26T07:41:02;11.93;;;4.20;;
46717;SDS011;32448;44.960;-0.698;2023-02-26T07:43:30;12.57;;;4.20;;
46717;SDS011;32448;44.960;-0.698;2023-02-26T07:45:58;15.02;;;4.57;;
46717;SDS011;32448;44.960;-0.698;2023-02-26T07:48:26;10.23;;;4.40;;
46717;SDS011;32448;44.960;-0.698;2023-02-26T07:50:58;10.95;;;4.68;;
46717;SDS011;32448;44.960;-0.698;2023-02-26T07:53:30;11.95;;;4.45;;
46717;SDS011;32448;44.960;-0.698;2023-02-26T07:55:59;11.32;;;4.35;;
46717;SDS011;32448;44.960;-0.698;2023-02-26T07:58:26;10.60;;;4.60;;
46717;SDS011;32448;44.960;-0.698;2023-02-26T08:00:54;16.30;;;4.22;;
46717;SDS011;32448;44.960;-0.698;2023-02-26T08:03:21;14.38;;;4.97;;
46717;SDS011;32448;44.960;-0.698;2023-02-26T08:05:56;11.02;;;4.70;;
46717;SDS011;32448;44.960;-0.698;2023-02-26T08:08:26;11.93;;;4.20;;
46717;SDS011;32448;44.960;-0.698;2023-02-26T08:10:57;12.18;;;4.78;;
46717;SDS011;32448;44.960;-0.698;2023-02-26T08:13:30;15.65;;;5.18;;
46717;SDS011;32448;44.960;-0.698;2023-02-26T08:16:27;10.25;;;4.70;;
46717;SDS011;32448;44.960;-0.698;2023-02-26T08:19:18;16.48;;;5.55;;
46717;SDS011;32448;44.960;-0.698;2023-02-26T08:21:53;11.93;;;5.18;;
46717;SDS011;32448;44.960;-0.698;2023-02-26T08:24:28;9.98;;;4.57;;
46717;SDS011;32448;44.960;-0.698;2023-02-26T08:30:26;9.68;;;4.50;;
46717;SDS011;32448;44.960;-0.698;2023-02-26T08:33:02;11.25;;;5.22;;
46717;SDS011;32448;44.960;-0.698;2023-02-26T08:35:40;10.60;;;5.05;;
46717;SDS011;32448;44.960;-0.698;2023-02-26T08:38:33;14.23;;;5.70;;
46717;SDS011;32448;44.960;-0.698;2023-02-26T08:41:11;12.10;;;4.80;;
46717;SDS011;32448;44.960;-0.698;2023-02-26T08:43:56;13.20;;;5.75;;
46717;SDS011;32448;44.960;-0.698;2023-02-26T08:46:31;9.68;;;5.28;;
46717;SDS011;32448;44.960;-0.698;2023-02-26T08:51:51;8.98;;;4.13;;
46717;SDS011;32448;44.960;-0.698;2023-02-26T08:54:21;12.75;;;4.53;;
46717;SDS011;32448;44.960;-0.698;2023-02-26T08:56:56;9.85;;;4.40;;
46717;SDS011;32448;44.960;-0.698;2023-02-26T08:59:24;10.55;;;4.35;;
46717;SDS011;32448;44.960;-0.698;2023-02-26T09:01:56;9.18;;;4.28;;
46717;SDS011;32448;44.960;-0.698;2023-02-26T09:04:48;11.00;;;4.70;;
46717;SDS011;32448;44.960;-0.698;2023-02-26T09:07:17;9.40;;;4.28;;
46717;SDS011;32448;44.960;-0.698;2023-02-26T09:09:46;11.30;;;4.57;;
46717;SDS011;32448;44.960;-0.698;2023-02-26T09:12:15;12.43;;;4.22;;
46717;SDS011;32448;44.960;-0.698;2023-02-26T09:14:52;10.13;;;4.32;;
46717;SDS011;32448;44.960;-0.698;2023-02-26T09:17:19;11.73;;;4.35;;
46717;SDS011;32448;44.960;-0.698;2023-02-26T09:19:48;8.50;;;3.78;;
46717;SDS011;32448;44.960;-0.698;2023-02-26T09:22:17;9.45;;;3.90;;
46717;SDS011;32448;44.960;-0.698;2023-02-26T09:24:44;10.73;;;4.20;;
46717;SDS011;32448;44.960;-0.698;2023-02-26T09:27:12;9.20;;;3.85;;
46717;SDS011;32448;44.960;-0.698;2023-02-26T09:29:41;10.38;;;4.55;;
46717;SDS011;32448;44.960;-0.698;2023-02-26T09:32:16;10.32;;;4.20;;
46717;SDS011;32448;44.960;-0.698;2023-02-26T09:34:45;10.10;;;4.18;;
46717;SDS011;32448;44.960;-0.698;2023-02-26T09:37:12;9.00;;;3.88;;
46717;SDS011;32448;44.960;-0.698;2023-02-26T09:39:40;9.27;;;4.22;;
46717;SDS011;32448;44.960;-0.698;2023-02-26T09:45:15;8.18;;;3.45;;
46717;SDS011;32448;44.960;-0.698;2023-02-26T09:47:51;6.05;;;3.05;;
46717;SDS011;32448;44.960;-0.698;2023-02-26T09:50:25;12.98;;;3.95;;
46717;SDS011;32448;44.960;-0.698;2023-02-26T09:53:38;7.63;;;3.55;;
46717;SDS011;32448;44.960;-0.698;2023-02-26T09:56:02;7.57;;;3.83;;
46717;SDS011;32448;44.960;-0.698;2023-02-26T09:58:37;7.13;;;3.25;;
46717;SDS011;32448;44.960;-0.698;2023-02-26T10:01:18;8.68;;;3.83;;
46717;SDS011;32448;44.960;-0.698;2023-02-26T10:04:14;6.57;;;3.38;;
46717;SDS011;32448;44.960;-0.698;2023-02-26T10:09:41;10.02;;;3.85;;
46717;SDS011;32448;44.960;-0.698;2023-02-26T10:12:27;7.65;;;3.22;;
46717;SDS011;32448;44.960;-0.698;2023-02-26T10:17:43;9.82;;;4.13;;
46717;SDS011;32448;44.960;-0.698;2023-02-26T10:25:57;6.65;;;3.05;;
46717;SDS011;32448;44.960;-0.698;2023-02-26T10:28:37;10.80;;;4.47;;
46717;SDS011;32448;44.960;-0.698;2023-02-26T10:34:25;5.93;;;2.78;;
46717;SDS011;32448;44.960;-0.698;2023-02-26T10:37:18;5.78;;;3.10;;
46717;SDS011;32448;44.960;-0.698;2023-02-26T10:40:13;5.47;;;2.47;;
46717;SDS011;32448;44.960;-0.698;2023-02-26T10:42:53;5.05;;;2.20;;
46717;SDS011;32448;44.960;-0.698;2023-02-26T10:45:27;10.23;;;2.97;;
46717;SDS011;32448;44.960;-0.698;2023-02-26T10:48:04;4.63;;;2.20;;
46717;SDS011;32448;44.960;-0.698;2023-02-26T10:50:53;5.65;;;2.25;;
46717;SDS011;32448;44.960;-0.698;2023-02-26T10:53:24;3.05;;;2.10;;
46717;SDS011;32448;44.960;-0.698;2023-02-26T10:59:04;4.55;;;2.20;;
46717;SDS011;32448;44.960;-0.698;2023-02-26T11:01:32;5.10;;;2.17;;
46717;SDS011;32448;44.960;-0.698;2023-02-26T11:04:07;4.78;;;1.95;;
46717;SDS011;32448;44.960;-0.698;2023-02-26T11:06:43;5.20;;;2.10;;
46717;SDS011;32448;44.960;-0.698;2023-02-26T11:09:37;4.10;;;1.88;;
46717;SDS011;32448;44.960;-0.698;2023-02-26T11:14:41;4.05;;;1.90;;
46717;SDS011;32448;44.960;-0.698;2023-02-26T11:17:11;3.47;;;1.88;;
46717;SDS011;32448;44.960;-0.698;2023-02-26T11:19:46;6.60;;;1.63;;
46717;SDS011;32448;44.960;-0.698;2023-02-26T11:22:18;6.00;;;1.58;;
46717;SDS011;32448;44.960;-0.698;2023-02-26T11:24:49;6.03;;;1.70;;
46717;SDS011;32448;44.960;-0.698;2023-02-26T11:27:24;3.85;;;1.55;;
46717;SDS011;32448;44.960;-0.698;2023-02-26T11:29:57;3.80;;;1.88;;
46717;SDS011;32448;44.960;-0.698;2023-02-26T11:32:35;3.10;;;1.90;;
46717;SDS011;32448;44.960;-0.698;2023-02-26T11:35:08;6.25;;;2.50;;
46717;SDS011;32448;44.960;-0.698;2023-02-26T11:37:37;4.25;;;1.38;;
46717;SDS011;32448;44.960;-0.698;2023-02-26T11:42:50;3.83;;;1.30;;
46717;SDS011;32448;44.960;-0.698;2023-02-26T11:45:24;4.57;;;1.90;;
46717;SDS011;32448;44.960;-0.698;2023-02-26T11:47:57;4.85;;;1.80;;
46717;SDS011;32448;44.960;-0.698;2023-02-26T11:50:28;4.90;;;1.67;;
46717;SDS011;32448;44.960;-0.698;2023-02-26T11:53:05;4.32;;;1.50;;
46717;SDS011;32448;44.960;-0.698;2023-02-26T11:55:43;5.38;;;1.50;;
46717;SDS011;32448;44.960;-0.698;2023-02-26T11:58:17;3.70;;;1.50;;
46717;SDS011;32448;44.960;-0.698;2023-02-26T12:00:53;4.30;;;1.52;;
46717;SDS011;32448;44.960;-0.698;2023-02-26T12:03:27;4.15;;;1.60;;
46717;SDS011;32448;44.960;-0.698;2023-02-26T12:08:34;3.30;;;1.42;;
46717;SDS011;32448;44.960;-0.698;2023-02-26T12:13:42;5.72;;;1.75;;
46717;SDS011;32448;44.960;-0.698;2023-02-26T12:24:27;4.20;;;1.63;;
46717;SDS011;32448;44.960;-0.698;2023-02-26T12:30:49;3.17;;;1.45;;
46717;SDS011;32448;44.960;-0.698;2023-02-26T12:35:46;3.17;;;1.30;;
46717;SDS011;32448;44.960;-0.698;2023-02-26T12:41:32;2.47;;;1.30;;
46717;SDS011;32448;44.960;-0.698;2023-02-26T12:44:32;6.00;;;1.40;;
46717;SDS011;32448;44.960;-0.698;2023-02-26T12:53:21;2.70;;;1.45;;
46717;SDS011;32448;44.960;-0.698;2023-02-26T12:59:18;3.17;;;1.35;;
46717;SDS011;32448;44.960;-0.698;2023-02-26T13:12:45;3.08;;;1.33;;
46717;SDS011;32448;44.960;-0.698;2023-02-26T13:15:44;5.57;;;1.42;;
46717;SDS011;32448;44.960;-0.698;2023-02-26T13:21:07;4.40;;;1.02;;
46717;SDS011;32448;44.960;-0.698;2023-02-26T13:26:30;2.53;;;0.98;;
46717;SDS011;32448;44.960;-0.698;2023-02-26T13:29:08;2.67;;;1.17;;
46717;SDS011;32448;44.960;-0.698;2023-02-26T13:34:43;2.97;;;1.30;;
46717;SDS011;32448;44.960;-0.698;2023-02-26T13:37:26;3.50;;;1.33;;
46717;SDS011;32448;44.960;-0.698;2023-02-26T13:51:37;7.32;;;1.05;;
46717;SDS011;32448;44.960;-0.698;2023-02-26T13:56:47;1.92;;;0.70;;
46717;SDS011;32448;44.960;-0.698;2023-02-26T14:04:49;3.38;;;1.40;;
46717;SDS011;32448;44.960;-0.698;2023-02-26T14:10:32;2.58;;;0.85;;
46717;SDS011;32448;44.960;-0.698;2023-02-26T14:13:19;3.33;;;1.25;;
46717;SDS011;32448;44.960;-0.698;2023-02-26T14:16:19;2.95;;;1.00;;
46717;SDS011;32448;44.960;-0.698;2023-02-26T14:18:49;3.47;;;1.20;;
46717;SDS011;32448;44.960;-0.698;2023-02-26T14:21:30;4.22;;;1.10;;
46717;SDS011;32448;44.960;-0.698;2023-02-26T14:24:21;4.32;;;1.10;;
46717;SDS011;32448;44.960;-0.698;2023-02-26T14:27:07;3.38;;;1.10;;
46717;SDS011;32448;44.960;-0.698;2023-02-26T14:29:58;4.13;;;1.20;;
46717;SDS011;32448;44.960;-0.698;2023-02-26T14:32:38;5.28;;;0.80;;
46717;SDS011;32448;44.960;-0.698;2023-02-26T14:35:36;2.45;;;0.90;;
46717;SDS011;32448;44.960;-0.698;2023-02-26T14:38:25;2.92;;;0.90;;
46717;SDS011;32448;44.960;-0.698;2023-02-26T14:41:07;4.45;;;0.90;;
46717;SDS011;32448;44.960;-0.698;2023-02-26T14:43:59;2.35;;;0.70;;
46717;SDS011;32448;44.960;-0.698;2023-02-26T14:46:33;3.10;;;0.82;;
46717;SDS011;32448;44.960;-0.698;2023-02-26T14:49:05;3.08;;;1.00;;
46717;SDS011;32448;44.960;-0.698;2023-02-26T14:51:50;5.03;;;1.00;;
46717;SDS011;32448;44.960;-0.698;2023-02-26T14:54:36;1.92;;;0.68;;
46717;SDS011;32448;44.960;-0.698;2023-02-26T15:00:39;3.55;;;0.98;;
46717;SDS011;32448;44.960;-0.698;2023-02-26T15:12:10;5.00;;;0.88;;
46717;SDS011;32448;44.960;-0.698;2023-02-26T15:23:47;2.67;;;0.80;;
46717;SDS011;32448;44.960;-0.698;2023-02-26T15:29:00;2.58;;;0.70;;
46717;SDS011;32448;44.960;-0.698;2023-02-26T15:31:33;2.17;;;0.70;;
46717;SDS011;32448;44.960;-0.698;2023-02-26T15:34:03;5.28;;;0.60;;
46717;SDS011;32448;44.960;-0.698;2023-02-26T15:36:31;2.63;;;0.93;;
46717;SDS011;32448;44.960;-0.698;2023-02-26T15:39:00;2.35;;;0.90;;
46717;SDS011;32448;44.960;-0.698;2023-02-26T15:41:30;2.40;;;0.75;;
46717;SDS011;32448;44.960;-0.698;2023-02-26T15:44:01;3.33;;;0.88;;
46717;SDS011;32448;44.960;-0.698;2023-02-26T15:46:34;2.95;;;0.80;;
46717;SDS011;32448;44.960;-0.698;2023-02-26T15:49:09;3.58;;;0.80;;
46717;SDS011;32448;44.960;-0.698;2023-02-26T15:51:41;2.83;;;0.93;;
46717;SDS011;32448;44.960;-0.698;2023-02-26T15:54:18;3.08;;;1.00;;
46717;SDS011;32448;44.960;-0.698;2023-02-26T15:56:48;2.03;;;0.70;;
46717;SDS011;32448;44.960;-0.698;2023-02-26T15:59:28;4.13;;;0.90;;
46717;SDS011;32448;44.960;-0.698;2023-02-26T16:02:02;3.08;;;0.90;;
46717;SDS011;32448;44.960;-0.698;2023-02-26T16:04:42;3.05;;;1.15;;
46717;SDS011;32448;44.960;-0.698;2023-02-26T16:07:27;2.75;;;0.82;;
46717;SDS011;32448;44.960;-0.698;2023-02-26T16:10:02;4.43;;;0.70;;
46717;SDS011;32448;44.960;-0.698;2023-02-26T16:12:46;1.80;;;0.75;;
46717;SDS011;32448;44.960;-0.698;2023-02-26T16:15:18;2.53;;;0.73;;
46717;SDS011;32448;44.960;-0.698;2023-02-26T16:17:56;2.08;;;1.13;;
46717;SDS011;32448;44.960;-0.698;2023-02-26T16:20:39;6.57;;;0.95;;
46717;SDS011;32448;44.960;-0.698;2023-02-26T16:23:20;2.35;;;1.17;;
46717;SDS011;32448;44.960;-0.698;2023-02-26T16:25:53;2.80;;;0.82;;
46717;SDS011;32448;44.960;-0.698;2023-02-26T16:28:42;4.32;;;0.80;;
46717;SDS011;32448;44.960;-0.698;2023-02-26T16:31:21;4.00;;;0.98;;
46717;SDS011;32448;44.960;-0.698;2023-02-26T16:33:55;2.05;;;0.90;;
46717;SDS011;32448;44.960;-0.698;2023-02-26T16:36:37;4.18;;;1.00;;
46717;SDS011;32448;44.960;-0.698;2023-02-26T16:39:24;2.80;;;0.75;;
46717;SDS011;32448;44.960;-0.698;2023-02-26T16:42:07;2.00;;;0.90;;
46717;SDS011;32448;44.960;-0.698;2023-02-26T16:44:48;1.92;;;0.77;;
46717;SDS011;32448;44.960;-0.698;2023-02-26T16:47:24;2.03;;;1.02;;
46717;SDS011;32448;44.960;-0.698;2023-02-26T16:49:59;4.93;;;1.15;;
46717;SDS011;32448;44.960;-0.698;2023-02-26T16:52:36;3.92;;;1.23;;
46717;SDS011;32448;44.960;-0.698;2023-02-26T16:55:04;3.42;;;1.05;;
46717;SDS011;32448;44.960;-0.698;2023-02-26T16:57:39;5.32;;;2.40;;
46717;SDS011;32448;44.960;-0.698;2023-02-26T17:00:16;5.45;;;2.22;;
46717;SDS011;32448;44.960;-0.698;2023-02-26T17:05:45;3.22;;;1.30;;
46717;SDS011;32448;44.960;-0.698;2023-02-26T17:08:25;3.97;;;1.52;;
46717;SDS011;32448;44.960;-0.698;2023-02-26T17:11:00;5.28;;;1.33;;
46717;SDS011;32448;44.960;-0.698;2023-02-26T17:13:31;3.78;;;1.00;;
46717;SDS011;32448;44.960;-0.698;2023-02-26T17:16:04;2.08;;;0.88;;
46717;SDS011;32448;44.960;-0.698;2023-02-26T17:18:38;2.63;;;1.00;;
46717;SDS011;32448;44.960;-0.698;2023-02-26T17:21:08;6.18;;;1.58;;
46717;SDS011;32448;44.960;-0.698;2023-02-26T17:23:39;3.90;;;1.40;;
46717;SDS011;32448;44.960;-0.698;2023-02-26T17:26:11;3.25;;;1.20;;
46717;SDS011;32448;44.960;-0.698;2023-02-26T17:28:41;2.90;;;1.10;;
46717;SDS011;32448;44.960;-0.698;2023-02-26T17:31:19;2.53;;;1.10;;
46717;SDS011;32448;44.960;-0.698;2023-02-26T17:33:54;3.25;;;1.23;;
46717;SDS011;32448;44.960;-0.698;2023-02-26T17:36:26;2.63;;;1.13;;
46717;SDS011;32448;44.960;-0.698;2023-02-26T17:39:01;2.78;;;1.40;;
46717;SDS011;32448;44.960;-0.698;2023-02-26T17:41:39;2.47;;;1.15;;
46717;SDS011;32448;44.960;-0.698;2023-02-26T17:44:20;2.85;;;1.13;;
46717;SDS011;32448;44.960;-0.698;2023-02-26T17:46:52;4.13;;;1.73;;
46717;SDS011;32448;44.960;-0.698;2023-02-26T17:49:35;5.55;;;1.30;;
46717;SDS011;32448;44.960;-0.698;2023-02-26T17:52:03;2.58;;;1.48;;
46717;SDS011;32448;44.960;-0.698;2023-02-26T17:54:31;4.28;;;1.42;;
46717;SDS011;32448;44.960;-0.698;2023-02-26T17:57:08;3.75;;;1.15;;
46717;SDS011;32448;44.960;-0.698;2023-02-26T17:59:44;4.18;;;1.40;;
46717;SDS011;32448;44.960;-0.698;2023-02-26T18:02:23;2.72;;;1.08;;
46717;SDS011;32448;44.960;-0.698;2023-02-26T18:04:55;3.08;;;1.70;;
46717;SDS011;32448;44.960;-0.698;2023-02-26T18:07:31;2.42;;;1.20;;
46717;SDS011;32448;44.960;-0.698;2023-02-26T18:10:14;5.25;;;1.83;;
46717;SDS011;32448;44.960;-0.698;2023-02-26T18:13:07;3.58;;;1.20;;
46717;SDS011;32448;44.960;-0.698;2023-02-26T18:15:52;2.92;;;1.15;;